EPPOEPKT

Guest
Details From EPPO - LAWICA
To EPKT - PYRZOWICE
Flight Number -
Tags generated
Created
Modified
Stats Distance 144 nm / 267 km
Max Altitude 18,200 ft / 5,547 m
Waypoints 3
Social Downloads 3
Likes 0
Share VATSIM

Download

Looking for another format? Having issues loading an existing format? Contact us
Advertisement - Login to hide

Notes

Basic altitude profile: - Ascent Rate: 2500ft/min - Ascent Speed: 250kts - Cruise Altitude: 11000ft - Cruise Speed: 420kts - Descent Rate: 1500ft/min - Descent Speed: 250kts Options: - Use NATs: yes - Use PACOTS: yes - Use low airways: yes - Use high airways: yes

Route

EPPO BADNO EPKT

ID Type Via Altitude (ft/m) Position (lat/lon) Dist (leg/tot) Name
O EPPO APT - 0 / 0 52.42157 / 16.82355 - / 0 nm LAWICA
BADNO FIX - 18,200 / 5,547 51.75000 / 17.67833 51 / 51 nm
O EPKT APT - 0 / 0 50.47426 / 19.07436 92 / 144 nm PYRZOWICE

Altitude Profile

Advertisement - Login to hide

EPPO

Details ICAO EPPO (POZ)
Name LAWICA
Region Poland
Timezone Europe/Warsaw (UTC+2.0)
Stats Elevation 308 ft / 94 m (AMSL)
Location 52.421600° 16.823600°
Runways 1
Magnetic Variation 4.825° E

METAR

EPPO 181330Z 31005KT 290V360 9999 SCT048 27/14 Q1019

Decode

TAF

TAF EPPO 181130Z 1812/1912 35012KT CAVOK TEMPO 1812/1817 SCT050CB BECMG 1822/1901 VRB02KT

Decode

Departure Runways

ID Width Length Bearing (true/mag) Surface Threshold Overrun Markings Lighting
11 164 ft / 50 m 8,153 ft / 2,485 m 107.57° / 102.75° ASPHALT 0 ft / 0 m 0 ft / 0 m PREC-APP EDGE THRESHOLD SALS
29 164 ft / 50 m 8,153 ft / 2,485 m 287.59° / 282.77° ASPHALT 0 ft / 0 m 0 ft / 0 m PREC-APP EDGE THRESHOLD ALSF-I

EPKT

Details ICAO EPKT (KTW)
Name Katowice Airport
Region Poland
Timezone Europe/Warsaw (UTC+2.0)
Stats Elevation 995 ft / 303 m (AMSL)
Location 50.476000° 19.082100°
Runways 1
Magnetic Variation 5.171° E

METAR

EPKT 181330Z 34007KT 310V020 CAVOK 28/12 Q1019

Decode

TAF

TAF EPKT 181130Z 1812/1912 VRB02KT 9999 SCT040 TEMPO 1812/1818 BKN030CB PROB40 TEMPO 1812/1818 VRB15G25KT TSRA TEMPO 1902/1905 1200 BR

Decode

Destination Runways

ID Width Length Bearing (true/mag) Surface Threshold Overrun Markings Lighting
09 145 ft / 44 m 10,499 ft / 3,200 m 90.18° / 85.01° CONCRETE 0 ft / 0 m 102 ft / 31 m PREC-APP CENTERLINE EDGE THRESHOLD SALS REIL-OMNI
27 145 ft / 44 m 10,499 ft / 3,200 m 270.21° / 265.04° CONCRETE 1,056 ft / 322 m 98 ft / 30 m PREC-APP CENTERLINE EDGE THRESHOLD CALVERT REIL-OMNI

Approach Navaids

Runway Type Ident Frequency Range Bearing (true/mag) Slope Elevation
27 LOC-ILS KAT 109.90 MHz 18 nm / 33 km 270.18° / 265.01 ° - 995 ft / 303 m (AMSL)
27 LOC-ILS IKTO 109.90 MHz 18 nm / 33 km 270.20° / 265.03 ° - 995 ft / 303 m (AMSL)
27 GS KAT 109.90 MHz 10 nm / 19 km 270.38° / 265.20 ° 3.20° 995 ft / 303 m (AMSL)
27 GS IKTO 109.90 MHz 10 nm / 19 km 270.20° / 265.03 ° 3.00° 995 ft / 303 m (AMSL)
27 OM OM - - 270.20° / 265.03 ° - 995 ft / 303 m (AMSL)
27 MM MM - - 270.20° / 265.03 ° - 995 ft / 303 m (AMSL)

Popular Alternatives